Time;durP1;ratioP1;P1;durP2;ratioP2;P2;SDS_P1;SDS_P2;PMS_P1;PMS_P2;Temp;Humidity;BMP_temperature;BMP_pressure;BME280_temperature;BME280_humidity;BME280_pressure;Samples;Min_cycle;Max_cycle;Signal;HPM_P1;HPM_P2
2023/05/06 01:17:45;235689.00;0.79;407.34;0.00;0.00;0.62;;;;;19.30;1.00;;;;;;2551692;56;3535;-89
2023/05/06 02:44:40;95888.00;0.32;166.47;0.00;0.00;0.62;;;;;18.30;3.50;;;;;;2557123;56;1917;-89
2023/05/06 02:49:35;6682.00;0.02;12.20;0.00;0.00;0.62;;;;;18.30;2.00;;;;;;2561399;56;718;-89
2023/05/06 03:04:26;18186.00;0.06;32.13;0.00;0.00;0.62;;;;;17.90;3.30;;;;;;2558206;56;1916;-89
2023/05/06 03:14:20;98579.00;0.33;171.12;0.00;0.00;0.62;;;;;17.80;2.90;;;;;;2553621;41;3336;-88
2023/05/06 04:56:14;154244.00;0.51;267.12;0.00;0.00;0.62;;;;;17.60;2.30;;;;;;2552822;40;3525;31
2023/05/06 05:41:01;146960.00;0.49;254.57;0.00;0.00;0.62;;;;;19.30;1.00;;;;;;2554300;40;3467;-87
2023/05/06 06:08:41;189978.00;0.63;328.67;0.00;0.00;0.62;;;;;19.30;1.00;;;;;;2561681;56;759;-88
2023/05/06 06:54:21;120062280.00;400.21;70109152.00;0.00;0.00;0.62;;;;;21.00;1.00;;;;;;2539533;40;3419;-87
2023/05/06 07:17:14;126796.00;0.42;219.80;40945.00;0.14;71.52;;;;;20.30;1.00;;;;;;2551285;56;774;-93
2023/05/06 08:20:16;340923.00;1.14;588.26;59192.00;0.20;103.08;;;;;27.40;1.00;;;;;;2557677;55;3570;-89
2023/05/06 09:51:34;13021.00;0.04;23.18;0.00;0.00;0.62;;;;;25.70;1.00;;;;;;2560827;56;881;-88
2023/05/06 09:54:02;137915.00;0.46;238.98;0.00;0.00;0.62;;;;;25.50;1.00;;;;;;2560388;56;1337;-87
2023/05/06 09:56:31;27280.00;0.09;47.87;0.00;0.00;0.62;;;;;25.60;1.00;;;;;;2555854;56;1067;-86
2023/05/06 09:59:03;29368.00;0.10;51.49;0.00;0.00;0.62;;;;;25.50;1.00;;;;;;2555736;56;1114;-86
2023/05/06 10:01:31;56098.00;0.19;97.73;0.00;0.00;0.62;;;;;25.60;1.00;;;;;;2557956;56;948;-87
2023/05/06 10:04:04;74502.00;0.25;129.54;0.00;0.00;0.62;;;;;25.60;1.00;;;;;;2557815;56;2132;-87
2023/05/06 10:06:34;0.00;0.00;0.62;0.00;0.00;0.62;;;;;25.30;1.00;;;;;;2557947;56;993;-88
2023/05/06 10:09:02;271405.00;0.90;468.76;108368.00;0.36;188.01;;;;;25.30;1.00;;;;;;2555692;56;1012;-87
2023/05/06 10:11:31;18377.00;0.06;32.46;0.00;0.00;0.62;;;;;24.80;1.00;;;;;;2555825;56;1077;-87
2023/05/06 10:14:01;0.00;0.00;0.62;0.00;0.00;0.62;;;;;24.70;1.00;;;;;;2555682;56;1328;-89
2023/05/06 10:16:29;59920.00;0.20;104.34;0.00;0.00;0.62;;;;;24.50;1.00;;;;;;2555698;56;1043;-87
2023/05/06 10:18:57;124437.00;0.41;215.74;0.00;0.00;0.62;;;;;24.30;1.00;;;;;;2555770;56;1072;-87
2023/05/06 10:21:27;164370.00;0.55;284.57;0.00;0.00;0.62;;;;;24.50;1.00;;;;;;2557927;56;1649;-86
2023/05/06 10:24:03;27016.00;0.09;47.42;0.00;0.00;0.62;;;;;24.80;1.00;;;;;;2557853;56;1256;-87
2023/05/06 10:26:35;972.00;0.00;2.30;0.00;0.00;0.62;;;;;24.50;1.00;;;;;;2557831;56;1968;-87
2023/05/06 10:31:40;131252.00;0.44;227.49;0.00;0.00;0.62;;;;;24.30;1.00;;;;;;2561022;55;880;-87
2023/05/06 10:36:38;55794.00;0.19;97.21;0.00;0.00;0.62;;;;;24.00;1.00;;;;;;2560674;55;872;-87
2023/05/06 10:39:09;80192.00;0.27;139.37;0.00;0.00;0.62;;;;;24.20;1.00;;;;;;2560769;55;1502;-87
2023/05/06 10:41:38;137037.00;0.46;237.46;0.00;0.00;0.62;;;;;24.30;1.00;;;;;;2562874;55;1633;-86
2023/05/06 10:44:05;88092.00;0.29;153.01;0.00;0.00;0.62;;;;;24.40;1.00;;;;;;2560179;55;1331;-87
2023/05/06 10:46:52;147044.00;0.49;254.71;0.00;0.00;0.62;;;;;23.80;1.00;;;;;;2555780;56;1957;-86
2023/05/06 10:49:21;119060.00;0.40;206.46;13393.00;0.04;23.83;;;;;23.60;1.00;;;;;;2555613;56;1088;-86
2023/05/06 10:51:48;18461.00;0.06;32.60;0.00;0.00;0.62;;;;;23.40;1.00;;;;;;2557845;55;1538;-87
2023/05/06 10:54:24;52017.00;0.17;90.67;0.00;0.00;0.62;;;;;23.20;1.00;;;;;;2557913;55;1327;-87
2023/05/06 10:57:25;3433.00;0.01;6.57;0.00;0.00;0.62;;;;;23.50;1.00;;;;;;2555866;56;1041;-88
2023/05/06 11:02:20;0.00;0.00;0.62;0.00;0.00;0.62;;;;;24.20;1.00;;;;;;2561482;56;703;-90
2023/05/06 11:04:51;125967.00;0.42;218.37;0.00;0.00;0.62;;;;;24.50;1.00;;;;;;2556342;56;1903;-86
2023/05/06 11:07:23;17755.00;0.06;31.38;0.00;0.00;0.62;;;;;24.70;1.00;;;;;;2558001;55;1089;-88
2023/05/06 11:10:01;27588.00;0.09;48.41;0.00;0.00;0.62;;;;;25.10;1.00;;;;;;2555870;56;1090;-87
2023/05/06 11:12:51;157881.00;0.53;273.39;0.00;0.00;0.62;;;;;24.30;1.00;;;;;;2557893;55;1423;-86
2023/05/06 11:15:25;42847.00;0.14;74.81;0.00;0.00;0.62;;;;;24.00;1.00;;;;;;2554180;56;1207;-86
2023/05/06 11:17:54;51358.00;0.17;89.53;0.00;0.00;0.62;;;;;24.10;1.00;;;;;;2555791;56;1114;-86
2023/05/06 11:20:23;30968.00;0.10;54.26;0.00;0.00;0.62;;;;;24.20;1.00;;;;;;2555814;56;1110;-87
2023/05/06 11:22:50;82939.00;0.28;144.11;0.00;0.00;0.62;;;;;23.90;1.00;;;;;;2555722;56;1346;-86
2023/05/06 11:25:38;54265.00;0.18;94.56;0.00;0.00;0.62;;;;;23.70;1.00;;;;;;2557823;55;1915;-87
2023/05/06 11:28:09;0.00;0.00;0.62;0.00;0.00;0.62;;;;;24.00;1.00;;;;;;2557945;55;1056;-88
2023/05/06 11:30:39;2803.00;0.01;5.48;0.00;0.00;0.62;;;;;23.80;1.00;;;;;;2555784;56;1127;-87
2023/05/06 11:33:09;65095.00;0.22;113.28;0.00;0.00;0.62;;;;;24.00;1.00;;;;;;2557908;55;1403;-87
2023/05/06 11:35:36;4755.00;0.02;8.86;0.00;0.00;0.62;;;;;23.90;1.00;;;;;;2557912;55;1396;-87
2023/05/06 11:38:03;0.00;0.00;0.62;0.00;0.00;0.62;;;;;24.20;1.00;;;;;;2555784;56;1045;-88
2023/05/06 11:40:31;46483.00;0.15;81.10;0.00;0.00;0.62;;;;;23.90;1.00;;;;;;2555880;56;1091;-89
2023/05/06 11:43:11;16210.00;0.05;28.71;0.00;0.00;0.62;;;;;24.10;1.00;;;;;;2555839;56;1377;-87
2023/05/06 11:45:42;52731.00;0.18;91.91;0.00;0.00;0.62;;;;;24.50;1.00;;;;;;2557923;55;1936;-88
2023/05/06 11:48:11;109970.00;0.37;190.78;42487.00;0.14;74.19;;;;;24.40;1.00;;;;;;2558033;55;1785;-85
2023/05/06 11:50:38;0.00;0.00;0.62;0.00;0.00;0.62;;;;;24.60;1.00;;;;;;2555897;56;1142;-86
2023/05/06 11:53:06;45127.00;0.15;78.76;0.00;0.00;0.62;;;;;25.10;1.00;;;;;;2558150;55;1268;-88
2023/05/06 11:55:33;283234.00;0.94;489.10;0.00;0.00;0.62;;;;;25.30;1.00;;;;;;2555552;56;3679;-88
2023/05/06 11:58:00;213354.00;0.71;368.91;0.00;0.00;0.62;;;;;25.20;1.00;;;;;;2554447;40;3722;-88
2023/05/06 12:03:06;122152.00;0.41;211.79;0.00;0.00;0.62;;;;;25.50;1.00;;;;;;2560946;56;1401;-88
2023/05/06 12:05:33;33053.00;0.11;57.87;0.00;0.00;0.62;;;;;25.90;1.00;;;;;;2557950;56;1894;-87
2023/05/06 12:08:01;67025.00;0.22;116.62;0.00;0.00;0.62;;;;;25.30;1.00;;;;;;2557757;56;1453;-85
2023/05/06 12:10:27;54652.00;0.18;95.23;0.00;0.00;0.62;;;;;24.90;1.00;;;;;;2555651;56;1239;-86
2023/05/06 12:12:55;83245.00;0.28;144.64;0.00;0.00;0.62;;;;;24.90;1.00;;;;;;2555211;56;3663;-87
2023/05/06 12:17:56;85863.00;0.29;149.16;0.00;0.00;0.62;;;;;25.30;1.00;;;;;;2549818;40;3455;-87
2023/05/06 12:20:34;108360.00;0.36;188.00;0.00;0.00;0.62;;;;;25.40;1.00;;;;;;2558218;56;1004;-88
2023/05/06 12:23:08;96137.00;0.32;166.90;0.00;0.00;0.62;;;;;25.90;1.00;;;;;;2555817;56;1706;-86
2023/05/06 12:25:35;23878.00;0.08;41.99;0.00;0.00;0.62;;;;;25.90;1.00;;;;;;2558136;56;1958;-86
2023/05/06 12:28:13;50374.00;0.17;87.83;0.00;0.00;0.62;;;;;26.00;1.00;;;;;;2558142;56;965;-85
2023/05/06 12:30:40;0.00;0.00;0.62;0.00;0.00;0.62;;;;;26.20;1.00;;;;;;2558078;56;928;-88
2023/05/06 12:33:08;0.00;0.00;0.62;0.00;0.00;0.62;;;;;25.90;1.00;;;;;;2556021;56;1348;-88
2023/05/06 12:35:38;1946.00;0.01;3.99;0.00;0.00;0.62;;;;;25.90;1.00;;;;;;2555995;56;1024;-87
2023/05/06 12:38:10;0.00;0.00;0.62;0.00;0.00;0.62;;;;;26.10;1.00;;;;;;2557969;56;1519;-86
2023/05/06 12:40:38;37860.00;0.13;66.19;0.00;0.00;0.62;;;;;25.70;1.00;;;;;;2558031;56;924;-87
2023/05/06 12:43:05;9049.00;0.03;16.30;0.00;0.00;0.62;;;;;25.20;1.00;;;;;;2555844;56;1258;-88
2023/05/06 12:45:32;101128.00;0.34;175.52;30550.00;0.10;53.54;;;;;25.10;1.00;;;;;;2555979;56;1936;-87
2023/05/06 12:48:01;47973.00;0.16;83.68;0.00;0.00;0.62;;;;;25.00;1.00;;;;;;2555942;56;1099;-86
2023/05/06 12:50:32;67563.00;0.23;117.55;0.00;0.00;0.62;;;;;24.80;1.00;;;;;;2555918;56;993;-86
2023/05/06 12:53:01;117003.00;0.39;202.91;13156.00;0.04;23.42;;;;;24.20;1.00;;;;;;2555981;56;1336;-86
2023/05/06 12:55:30;188860.00;0.63;326.75;0.00;0.00;0.62;;;;;24.70;1.00;;;;;;2555743;56;996;-85
2023/05/06 12:57:57;133902.00;0.45;232.06;0.00;0.00;0.62;;;;;25.10;1.00;;;;;;2558249;56;879;-87
2023/05/06 13:00:24;192783.00;0.64;333.50;0.00;0.00;0.62;;;;;24.90;1.00;;;;;;2557982;56;1580;-87
2023/05/06 13:02:51;409876.00;1.37;706.78;0.00;0.00;0.62;;;;;24.60;1.00;;;;;;2558077;56;1308;-87
2023/05/06 13:05:18;295846.00;0.99;510.78;0.00;0.00;0.62;;;;;24.30;1.00;;;;;;2555949;56;1948;-87
2023/05/06 13:07:45;231456.00;0.77;400.05;0.00;0.00;0.62;;;;;24.30;1.00;;;;;;2555943;56;1048;-87
2023/05/06 13:10:14;276586.00;0.92;477.67;0.00;0.00;0.62;;;;;24.20;1.00;;;;;;2555935;56;1076;-87
2023/05/06 13:12:41;95646.00;0.32;166.06;0.00;0.00;0.62;;;;;24.30;1.00;;;;;;2553043;56;970;-87
2023/05/06 13:15:09;759469.00;2.53;1310.53;81668.00;0.27;141.92;;;;;24.50;1.00;;;;;;2552842;56;1581;-87
2023/05/06 13:17:36;261698.00;0.87;452.07;0.00;0.00;0.62;;;;;24.70;1.00;;;;;;2550782;56;1120;-85
2023/05/06 13:20:05;378890.00;1.26;653.52;41959.00;0.14;73.28;;;;;25.10;1.00;;;;;;2550737;56;1170;-86
2023/05/06 13:22:32;207800.00;0.69;359.35;0.00;0.00;0.62;;;;;25.30;1.00;;;;;;2550959;56;1092;-86
2023/05/06 13:25:00;376483.00;1.25;649.38;0.00;0.00;0.62;;;;;25.60;1.00;;;;;;2552946;56;1454;-87
2023/05/06 13:27:31;321416.00;1.07;554.73;0.00;0.00;0.62;;;;;26.30;1.00;;;;;;2550588;56;1915;-87
2023/05/06 13:29:58;189080.00;0.63;327.12;0.00;0.00;0.62;;;;;26.20;1.00;;;;;;2550988;56;1141;-86
2023/05/06 13:32:25;346411.00;1.15;597.69;0.00;0.00;0.62;;;;;25.70;1.00;;;;;;2550902;56;1029;-87
2023/05/06 13:34:52;288608.00;0.96;498.34;0.00;0.00;0.62;;;;;25.10;1.00;;;;;;2553037;56;1353;-87
2023/05/06 13:37:19;521748.00;1.74;899.28;0.00;0.00;0.62;;;;;25.10;1.00;;;;;;2552727;56;1488;-85
2023/05/06 13:39:46;198098.00;0.66;342.65;0.00;0.00;0.62;;;;;25.30;1.00;;;;;;2550979;56;1029;-87
2023/05/06 13:42:12;323637.00;1.08;558.55;0.00;0.00;0.62;;;;;24.80;1.00;;;;;;2551015;40;3563;-87
2023/05/06 13:44:41;397758.00;1.33;685.95;0.00;0.00;0.62;;;;;24.50;1.00;;;;;;2552997;56;1311;-87
2023/05/06 13:47:08;209835.00;0.70;362.85;0.00;0.00;0.62;;;;;23.90;1.00;;;;;;2550768;56;1904;-86
2023/05/06 13:49:34;135415.00;0.45;234.67;0.00;0.00;0.62;;;;;23.80;1.00;;;;;;2550761;56;1058;-85
2023/05/06 13:52:02;227518.00;0.76;393.28;0.00;0.00;0.62;;;;;23.60;1.00;;;;;;2552893;56;924;-88
2023/05/06 13:54:31;233809.00;0.78;404.10;9112.00;0.03;16.41;;;;;23.80;1.00;;;;;;2550970;56;1270;-87
2023/05/06 13:56:58;454232.00;1.51;783.06;15356.00;0.05;27.23;;;;;24.40;1.00;;;;;;2552922;56;1399;-87
2023/05/06 13:59:25;295100.00;0.98;509.50;0.00;0.00;0.62;;;;;24.80;1.00;;;;;;2552862;56;1458;-86
2023/05/06 14:01:57;112364.00;0.37;194.91;0.00;0.00;0.62;;;;;25.20;1.00;;;;;;2550770;56;1132;-86
2023/05/06 14:04:24;49454.00;0.16;86.24;0.00;0.00;0.62;;;;;25.30;1.00;;;;;;2552922;56;1388;-86
2023/05/06 14:06:51;23006.00;0.08;40.48;0.00;0.00;0.62;;;;;25.60;1.00;;;;;;2550716;56;1907;-86
2023/05/06 14:09:18;97215.00;0.32;168.76;0.00;0.00;0.62;;;;;25.90;1.00;;;;;;2550825;56;1061;-86
2023/05/06 14:11:45;44735.00;0.15;78.08;0.00;0.00;0.62;;;;;25.60;1.00;;;;;;2552879;56;2194;-87
2023/05/06 14:14:12;75852.00;0.25;131.87;0.00;0.00;0.62;;;;;25.40;1.00;;;;;;2550619;56;2020;-85
2023/05/06 14:16:39;125763.00;0.42;218.02;0.00;0.00;0.62;;;;;25.20;1.00;;;;;;2550960;56;1071;-86
2023/05/06 14:19:07;155885.00;0.52;269.95;0.00;0.00;0.62;;;;;25.30;1.00;;;;;;2550921;56;1068;-88
2023/05/06 14:21:34;47201.00;0.16;82.35;0.00;0.00;0.62;;;;;25.60;1.00;;;;;;2550864;56;1136;-86
2023/05/06 14:24:02;251509.00;0.84;434.55;30922.00;0.10;54.18;;;;;25.70;1.00;;;;;;2550820;56;1345;-86
2023/05/06 14:26:29;42016.00;0.14;73.38;0.00;0.00;0.62;;;;;25.50;1.00;;;;;;2552958;56;1893;-86
2023/05/06 14:28:56;112447.00;0.37;195.05;0.00;0.00;0.62;;;;;25.50;1.00;;;;;;2550854;56;1148;-87
2023/05/06 14:31:23;339184.00;1.13;585.27;0.00;0.00;0.62;;;;;25.70;1.00;;;;;;2552820;56;1595;-86
2023/05/06 14:33:50;180718.00;0.60;312.73;0.00;0.00;0.62;;;;;25.60;1.00;;;;;;2550685;56;1256;-86
2023/05/06 14:36:21;526945.00;1.76;908.23;14319.00;0.05;25.43;;;;;25.60;1.00;;;;;;2553214;56;1043;-86
2023/05/06 14:38:48;1332979.00;4.44;2332.59;48666.00;0.16;84.88;;;;;25.70;1.00;;;;;;2550964;56;1002;-88
2023/05/06 14:41:17;602417.00;2.01;1038.39;85985.00;0.29;149.37;;;;;26.00;1.00;;;;;;2550735;56;1063;-89
2023/05/06 14:43:44;459746.00;1.53;792.55;77681.00;0.26;135.03;;;;;25.90;1.00;;;;;;2548364;56;3601;-86
2023/05/06 14:46:13;478443.00;1.59;824.72;81122.00;0.27;140.98;;;;;26.20;1.00;;;;;;2550758;56;1949;-84
2023/05/06 14:48:42;761709.00;2.54;1314.42;164008.00;0.55;283.94;;;;;26.30;1.00;;;;;;2550809;56;1504;-85
2023/05/06 14:51:12;322038.00;1.07;555.80;82113.00;0.27;142.69;;;;;26.30;1.00;;;;;;2552850;56;1603;-85
2023/05/06 14:53:40;9231.00;0.03;16.62;0.00;0.00;0.62;;;;;26.20;1.00;;;;;;2550741;56;1289;-85
2023/05/06 14:56:16;101297.00;0.34;175.81;0.00;0.00;0.62;;;;;25.70;1.00;;;;;;2550727;56;1072;-86
2023/05/06 14:58:43;85372.00;0.28;148.32;0.00;0.00;0.62;;;;;25.60;1.00;;;;;;2550707;56;985;-86
2023/05/06 15:01:11;17661.00;0.06;31.22;0.00;0.00;0.62;;;;;25.70;1.00;;;;;;2550662;56;1033;-87
2023/05/06 15:03:37;85765.00;0.29;148.99;0.00;0.00;0.62;;;;;25.20;1.00;;;;;;2550618;56;1369;-86
2023/05/06 15:06:05;23937.00;0.08;42.09;0.00;0.00;0.62;;;;;24.80;1.00;;;;;;2550668;56;1887;-88
2023/05/06 15:08:45;104432.00;0.35;181.22;0.00;0.00;0.62;;;;;24.20;1.00;;;;;;2550655;56;1103;-87
2023/05/06 15:11:13;217587.00;0.73;376.19;26984.00;0.09;47.36;;;;;23.80;1.00;;;;;;2552697;56;1525;-88
2023/05/06 15:13:40;16394.00;0.05;29.03;0.00;0.00;0.62;;;;;23.50;1.00;;;;;;2550674;56;1387;-86
2023/05/06 15:16:07;30391.00;0.10;53.26;0.00;0.00;0.62;;;;;23.80;1.00;;;;;;2552655;56;1722;-87
2023/05/06 15:18:34;65452.00;0.22;113.90;0.00;0.00;0.62;;;;;24.10;1.00;;;;;;2550746;56;1025;-86
2023/05/06 15:21:01;67759.00;0.23;117.89;0.00;0.00;0.62;;;;;24.10;1.00;;;;;;2552790;56;2073;-86
2023/05/06 15:23:28;29193.00;0.10;51.19;0.00;0.00;0.62;;;;;24.50;1.00;;;;;;2550642;56;1285;-87
2023/05/06 15:25:56;24779.00;0.08;43.54;0.00;0.00;0.62;;;;;24.80;1.00;;;;;;2550059;56;1946;-87
2023/05/06 15:28:25;206015.00;0.69;356.28;0.00;0.00;0.62;;;;;24.70;1.00;;;;;;2552749;56;1538;-88
2023/05/06 15:30:52;0.00;0.00;0.62;0.00;0.00;0.62;;;;;24.90;1.00;;;;;;2550659;56;1040;-87
2023/05/06 15:33:19;20362.00;0.07;35.90;0.00;0.00;0.62;;;;;25.10;1.00;;;;;;2550620;56;1311;-86
2023/05/06 15:35:46;0.00;0.00;0.62;0.00;0.00;0.62;;;;;24.90;1.00;;;;;;2552783;56;2131;-86
2023/05/06 15:38:13;88535.00;0.30;153.78;0.00;0.00;0.62;;;;;24.90;1.00;;;;;;2552811;56;970;-88
2023/05/06 15:40:42;52909.00;0.18;92.22;0.00;0.00;0.62;;;;;24.80;1.00;;;;;;2552775;56;947;-86
2023/05/06 15:43:09;39580.00;0.13;69.16;0.00;0.00;0.62;;;;;24.70;1.00;;;;;;2550568;56;1336;-86
2023/05/06 15:45:38;297695.00;0.99;513.96;0.00;0.00;0.62;;;;;24.40;1.00;;;;;;2550612;56;1000;-86
2023/05/06 15:48:05;70236.00;0.23;122.17;0.00;0.00;0.62;;;;;24.30;1.00;;;;;;2550601;56;1952;-86
2023/05/06 15:50:32;109897.00;0.37;190.65;0.00;0.00;0.62;;;;;24.30;1.00;;;;;;2550780;56;1060;-86
2023/05/06 15:52:59;49112.00;0.16;85.65;0.00;0.00;0.62;;;;;24.20;1.00;;;;;;2550789;56;1320;-87
2023/05/06 15:55:26;22003.00;0.07;38.74;0.00;0.00;0.62;;;;;24.60;1.00;;;;;;2552885;56;1566;-87
2023/05/06 15:57:54;17765.00;0.06;31.40;0.00;0.00;0.62;;;;;24.80;1.00;;;;;;2553021;56;1060;-87
2023/05/06 16:00:21;0.00;0.00;0.62;0.00;0.00;0.62;;;;;24.80;1.00;;;;;;2550754;56;1117;-86
2023/05/06 16:02:49;42950.00;0.14;74.99;0.00;0.00;0.62;;;;;24.70;1.00;;;;;;2552888;56;1522;-87
2023/05/06 16:05:16;0.00;0.00;0.62;0.00;0.00;0.62;;;;;24.50;1.00;;;;;;2553067;56;931;-87
2023/05/06 16:07:43;0.00;0.00;0.62;0.00;0.00;0.62;;;;;24.60;1.00;;;;;;2550868;56;1941;-86
2023/05/06 16:10:10;39578.00;0.13;69.16;0.00;0.00;0.62;;;;;24.80;1.00;;;;;;2550912;56;1045;-86
2023/05/06 16:12:38;37118.00;0.12;64.90;0.00;0.00;0.62;;;;;24.70;1.00;;;;;;2552986;56;934;-87
2023/05/06 16:15:05;36844.00;0.12;64.43;0.00;0.00;0.62;;;;;24.50;1.00;;;;;;2552870;56;1526;-87
2023/05/06 16:17:36;14275.00;0.05;25.35;0.00;0.00;0.62;;;;;24.20;1.00;;;;;;2550832;56;1037;-87
2023/05/06 16:20:05;6020.00;0.02;11.05;0.00;0.00;0.62;;;;;24.00;1.00;;;;;;2550809;56;1087;-87
2023/05/06 16:22:32;72642.00;0.24;126.33;0.00;0.00;0.62;;;;;23.70;1.00;;;;;;2552892;56;1506;-87
2023/05/06 16:24:59;112914.00;0.38;195.86;0.00;0.00;0.62;;;;;23.80;1.00;;;;;;2552932;56;1352;-88
2023/05/06 16:27:27;61129.00;0.20;106.43;0.00;0.00;0.62;;;;;24.10;1.00;;;;;;2552882;56;1899;-86
2023/05/06 16:29:54;9338.00;0.03;16.80;0.00;0.00;0.62;;;;;24.30;1.00;;;;;;2552872;56;1571;-88
2023/05/06 16:32:24;104532.00;0.35;181.39;0.00;0.00;0.62;;;;;24.30;1.00;;;;;;2550891;56;1056;-87
2023/05/06 16:34:51;33014.00;0.11;57.80;0.00;0.00;0.62;;;;;24.50;1.00;;;;;;2552871;56;1624;-86
2023/05/06 16:37:19;44676.00;0.15;77.98;0.00;0.00;0.62;;;;;24.50;1.00;;;;;;2552949;56;1031;-86
2023/05/06 16:39:46;0.00;0.00;0.62;0.00;0.00;0.62;;;;;24.20;1.00;;;;;;2550823;56;1117;-86
2023/05/06 16:42:13;0.00;0.00;0.62;0.00;0.00;0.62;;;;;24.00;1.00;;;;;;2550862;56;951;-87
2023/05/06 16:44:39;41777.00;0.14;72.96;0.00;0.00;0.62;;;;;24.00;1.00;;;;;;2552889;56;1367;-87
2023/05/06 16:47:06;69971.00;0.23;121.71;0.00;0.00;0.62;;;;;23.80;1.00;;;;;;2550819;56;1940;-86
2023/05/06 16:49:33;36967.00;0.12;64.64;0.00;0.00;0.62;;;;;23.60;1.00;;;;;;2550798;56;1148;-87
2023/05/06 16:52:00;106067.00;0.35;184.04;0.00;0.00;0.62;;;;;23.40;1.00;;;;;;2552735;56;1010;-85
2023/05/06 16:54:28;122143.00;0.41;211.78;56728.00;0.19;98.82;;;;;23.40;1.00;;;;;;2550740;56;1372;-86
2023/05/06 16:56:55;131506.00;0.44;227.93;0.00;0.00;0.62;;;;;23.40;1.00;;;;;;2550530;56;1136;-86
2023/05/06 16:59:22;3753.00;0.01;7.12;0.00;0.00;0.62;;;;;23.50;1.00;;;;;;2550695;56;1151;-86
2023/05/06 17:01:49;105785.00;0.35;183.56;0.00;0.00;0.62;;;;;23.50;1.00;;;;;;2550207;56;1095;-86
2023/05/06 17:04:16;0.00;0.00;0.62;0.00;0.00;0.62;;;;;23.60;1.00;;;;;;2552593;56;1265;-84
2023/05/06 17:06:43;333955.00;1.11;576.28;106013.00;0.35;183.95;;;;;23.60;1.00;;;;;;2549976;56;1976;-85
2023/05/06 17:09:10;14162.00;0.05;25.16;0.00;0.00;0.62;;;;;23.70;1.00;;;;;;2550852;56;971;-84
2023/05/06 17:11:38;94871.00;0.32;164.72;0.00;0.00;0.62;;;;;23.80;1.00;;;;;;2550314;56;1081;-86
2023/05/06 17:14:05;0.00;0.00;0.62;0.00;0.00;0.62;;;;;23.70;1.00;;;;;;2550795;56;1386;-85
2023/05/06 17:16:31;0.00;0.00;0.62;0.00;0.00;0.62;;;;;23.20;1.00;;;;;;2552900;56;2104;-86
2023/05/06 17:18:58;18598.00;0.06;32.84;0.00;0.00;0.62;;;;;22.90;1.00;;;;;;2550842;56;1044;-85
2023/05/06 17:21:26;0.00;0.00;0.62;0.00;0.00;0.62;;;;;22.70;1.00;;;;;;2550789;56;1064;-86
2023/05/06 17:23:53;11811.00;0.04;21.09;0.00;0.00;0.62;;;;;22.60;1.00;;;;;;2550852;56;1419;-86
2023/05/06 17:26:20;12671.00;0.04;22.58;0.00;0.00;0.62;;;;;22.70;1.00;;;;;;2550832;56;1899;-86
2023/05/06 17:28:49;52967.00;0.18;92.32;0.00;0.00;0.62;;;;;23.10;1.00;;;;;;2550684;56;1081;-87
2023/05/06 17:31:17;0.00;0.00;0.62;0.00;0.00;0.62;;;;;23.20;1.00;;;;;;2550760;56;1120;-87
2023/05/06 17:33:44;1490.00;0.00;3.20;0.00;0.00;0.62;;;;;23.20;1.00;;;;;;2552877;56;1331;-86
2023/05/06 17:36:12;186343.00;0.62;322.41;0.00;0.00;0.62;;;;;22.90;1.00;;;;;;2550759;56;989;-86
2023/05/06 17:38:39;111445.00;0.37;193.32;0.00;0.00;0.62;;;;;22.90;1.00;;;;;;2550792;56;1311;-85
2023/05/06 17:41:06;0.00;0.00;0.62;0.00;0.00;0.62;;;;;23.00;1.00;;;;;;2550780;56;1051;-85
2023/05/06 17:43:33;98722.00;0.33;171.37;0.00;0.00;0.62;;;;;23.00;1.00;;;;;;2550635;56;1305;-85
2023/05/06 17:46:01;42532.00;0.14;74.27;0.00;0.00;0.62;;;;;23.20;1.00;;;;;;2550743;56;1100;-86
2023/05/06 17:48:28;0.00;0.00;0.62;0.00;0.00;0.62;;;;;23.10;1.00;;;;;;2552885;56;1954;-86
2023/05/06 17:50:59;97217.00;0.32;168.77;0.00;0.00;0.62;;;;;22.90;1.00;;;;;;2550713;56;1121;-86
2023/05/06 17:53:26;94554.00;0.32;164.17;0.00;0.00;0.62;;;;;22.80;1.00;;;;;;2550694;56;1445;-89
2023/05/06 17:55:53;27643.00;0.09;48.50;0.00;0.00;0.62;;;;;22.60;1.00;;;;;;2550714;56;1100;-86
2023/05/06 17:58:20;455771.00;1.52;785.71;148823.00;0.50;257.78;;;;;22.50;1.00;;;;;;2552910;56;1119;-85
2023/05/06 18:00:47;106256.00;0.35;184.37;459.00;0.00;1.42;;;;;22.80;1.00;;;;;;2550695;56;1026;-86
2023/05/06 18:03:15;345955.00;1.15;596.91;46692.00;0.16;81.46;;;;;22.60;1.00;;;;;;2549990;56;1394;-84
2023/05/06 18:05:42;14570.00;0.05;25.87;0.00;0.00;0.62;;;;;22.80;1.00;;;;;;2550416;56;1134;-85
2023/05/06 18:08:09;32166.00;0.11;56.33;0.00;0.00;0.62;;;;;22.70;1.00;;;;;;2550533;56;1902;-85
2023/05/06 18:10:36;0.00;0.00;0.62;0.00;0.00;0.62;;;;;22.60;1.00;;;;;;2550574;56;1113;-85
2023/05/06 18:13:03;116920696.00;389.74;64743776.00;116830424.00;389.43;64593804.00;;;;;22.50;1.00;;;;;;2550063;56;1360;-82
2023/05/06 18:15:29;65150.00;0.22;113.38;0.00;0.00;0.62;;;;;22.50;1.00;;;;;;2550489;56;1091;-84
2023/05/06 18:17:56;11180.00;0.04;19.99;0.00;0.00;0.62;;;;;22.50;1.00;;;;;;2550572;56;1124;-85
2023/05/06 18:20:25;395011.00;1.32;681.23;0.00;0.00;0.62;;;;;22.60;1.00;;;;;;2550354;56;1142;-84
2023/05/06 18:22:51;0.00;0.00;0.62;0.00;0.00;0.62;;;;;22.60;1.00;;;;;;2552554;56;1368;-85
2023/05/06 18:25:19;13111.00;0.04;23.34;0.00;0.00;0.62;;;;;22.70;1.00;;;;;;2550358;56;1162;-84
2023/05/06 18:27:47;58232.00;0.19;101.42;0.00;0.00;0.62;;;;;22.70;1.00;;;;;;2552482;56;1898;-84
2023/05/06 18:30:15;65262.00;0.22;113.57;0.00;0.00;0.62;;;;;23.00;1.00;;;;;;2550396;56;1142;-85
2023/05/06 18:32:41;315807.00;1.05;545.09;96302.00;0.32;167.19;;;;;23.10;1.00;;;;;;2550505;56;1097;-84
2023/05/06 18:35:10;21452.00;0.07;37.78;0.00;0.00;0.62;;;;;22.90;1.00;;;;;;2550320;56;1440;-85
2023/05/06 18:37:38;75773.00;0.25;131.74;8195.00;0.03;14.82;;;;;22.90;1.00;;;;;;2550407;56;1162;-85
2023/05/06 18:40:07;90108.00;0.30;156.49;0.00;0.00;0.62;;;;;22.90;1.00;;;;;;2550678;56;1128;-85
2023/05/06 18:42:34;244982.00;0.82;423.32;60325.00;0.20;105.04;;;;;23.00;1.00;;;;;;2552664;56;1087;-84
2023/05/06 18:45:03;157554.00;0.53;272.82;0.00;0.00;0.62;;;;;23.10;1.00;;;;;;2550894;56;1475;-85
2023/05/06 18:47:30;13550.00;0.05;24.10;0.00;0.00;0.62;;;;;22.90;1.00;;;;;;2550758;56;1897;-84
2023/05/06 18:49:59;0.00;0.00;0.62;0.00;0.00;0.62;;;;;23.00;1.00;;;;;;2550768;56;1070;-85
2023/05/06 18:52:26;0.00;0.00;0.62;0.00;0.00;0.62;;;;;23.10;1.00;;;;;;2552797;56;1698;-85
2023/05/06 18:54:54;18765.00;0.06;33.13;0.00;0.00;0.62;;;;;22.90;1.00;;;;;;2550686;56;1314;-83
2023/05/06 18:57:22;0.00;0.00;0.62;0.00;0.00;0.62;;;;;22.60;1.00;;;;;;2550496;56;1104;-84
2023/05/06 18:59:48;0.00;0.00;0.62;0.00;0.00;0.62;;;;;22.50;1.00;;;;;;2550786;56;1021;-84
2023/05/06 19:02:15;0.00;0.00;0.62;0.00;0.00;0.62;;;;;22.60;1.00;;;;;;2550580;56;1152;-83
2023/05/06 19:04:42;54223.00;0.18;94.49;0.00;0.00;0.62;;;;;22.50;1.00;;;;;;2550725;56;1269;-85
2023/05/06 19:07:09;35783.00;0.12;62.59;0.00;0.00;0.62;;;;;22.40;1.00;;;;;;2550792;56;1954;-85
2023/05/06 19:09:36;69466.00;0.23;120.84;0.00;0.00;0.62;;;;;22.50;1.00;;;;;;2550841;56;1182;-85
2023/05/06 19:12:05;180609.00;0.60;312.54;49705.00;0.17;86.68;;;;;22.60;1.00;;;;;;2550457;56;1123;-84
2023/05/06 19:14:33;66762.00;0.22;116.16;0.00;0.00;0.62;;;;;22.70;1.00;;;;;;2550050;56;1371;-85
2023/05/06 19:17:00;0.00;0.00;0.62;0.00;0.00;0.62;;;;;22.70;1.00;;;;;;2550561;56;1147;-84
2023/05/06 19:19:27;1011.00;0.00;2.37;0.00;0.00;0.62;;;;;22.70;1.00;;;;;;2550690;56;1103;-84
2023/05/06 19:21:54;339463.00;1.13;585.75;141445.00;0.47;245.06;;;;;22.80;1.00;;;;;;2550662;56;1161;-84
2023/05/06 19:24:20;72090.00;0.24;125.37;0.00;0.00;0.62;;;;;22.90;1.00;;;;;;2552700;56;1254;-85
2023/05/06 19:26:47;9051.00;0.03;16.30;0.00;0.00;0.62;;;;;22.90;1.00;;;;;;2552871;56;1106;-84
2023/05/06 19:29:15;25613.00;0.09;44.99;0.00;0.00;0.62;;;;;22.80;1.00;;;;;;2550648;56;1960;-86
2023/05/06 19:31:42;21258.00;0.07;37.45;0.00;0.00;0.62;;;;;22.70;1.00;;;;;;2552557;56;2230;-84
2023/05/06 19:34:09;5508.00;0.02;10.17;0.00;0.00;0.62;;;;;22.60;1.00;;;;;;2552323;56;1353;-85
2023/05/06 19:36:36;58449.00;0.19;101.80;0.00;0.00;0.62;;;;;22.40;1.00;;;;;;2552366;56;1089;-84
2023/05/06 19:39:03;245594.00;0.82;424.37;100066.00;0.33;173.69;;;;;22.10;1.00;;;;;;2550224;56;1124;-84
2023/05/06 19:41:30;177643.00;0.59;307.43;0.00;0.00;0.62;;;;;21.80;1.00;;;;;;2550253;56;1128;-84
2023/05/06 19:43:56;5486.00;0.02;10.13;0.00;0.00;0.62;;;;;21.70;1.00;;;;;;2549917;56;1301;-84
2023/05/06 19:46:25;32925.00;0.11;57.65;0.00;0.00;0.62;;;;;21.50;1.00;;;;;;2552068;56;1142;-84
2023/05/06 19:48:52;54909.00;0.18;95.68;0.00;0.00;0.62;;;;;21.40;1.00;;;;;;2550356;56;1898;-84